Aviation Digital Data Service (ADDS)

Output produced by METARs form (0724 UTC 24 March 2019)
found at http://www.aviationweather.gov/metar/data/
 
EKYT 240720Z AUTO 22009KT 9999 FEW180/// 05/04 Q1024
TAF EKYT 240512Z 2406/2506 25010KT 9999 FEW020 BKN180 
     TEMPO 2410/2418 26018G28KT 5000 SHRA SCT020CB 
     TEMPO 2418/2506 3000 SHRASN BKN012 SCT020CB
       
EKAH 240720Z AUTO 26007KT 9999NDV NCD 05/04 Q1026
TAF EKAH 240454Z 2406/2506 27005KT 9999 SCT020 
     TEMPO 2410/2414 -SHRA SCT025CB 
     BECMG 2410/2413 24015KT 
     TEMPO 2414/2419 24015G25KT SHRA SCT025CB 
     BECMG 2419/2421 25005KT 3000 SHRASN BKN008 SCT020CB 
     BECMG 2421/2423 9999 NSW SCT020 
     TEMPO 2503/2506 -RA SCT020TCU
       
EKBI 240720Z AUTO 24008KT 9999 FEW130/// 04/03 Q1026
TAF EKBI 240454Z 2406/2506 27005KT 9999 SCT020 
     BECMG 2408/2410 25015KT 
     TEMPO 2413/2419 -SHRA SCT025CB 
     BECMG 2419/2421 25005KT 4000 SHRASN BKN008 SCT020CB 
     BECMG 2421/2423 9999 NSW SCT020 
     TEMPO 2503/2506 -RA SCT020TCU
       
EKRN 240720Z AUTO 28012KT 9999 FEW012/// SCT014/// BKN160/// 05/04 Q1026
TAF EKRN 240651Z 2407/2415 28012KT CAVOK
       
EKEB 240720Z AUTO 23007KT 9999 SCT110/// 05/04 Q1027
TAF EKEB 240454Z 2406/2415 25008KT 9999 SCT030 
     BECMG 2408/2410 25015KT 
     TEMPO 2411/2415 -SHRA SCT025CB
       
EKKA 240720Z AUTO 23008KT 9999NDV NCD 05/03 Q1025
TAF EKKA 240512Z 2406/2506 24008KT 9999 FEW025 BKN150 
     TEMPO 2410/2419 26015G28KT 5000 SHRA SCT020CB 
     TEMPO 2419/2506 3000 SHRASN BKN012 SCT020CB
       
EKCH 240720Z 27010KT 9999 FEW007 OVC250 05/03 Q1026 NOSIG
TAF EKCH 240454Z 2406/2506 28010KT 9999 SCT020 
     BECMG 2423/2501 3000 SHRASN BKN008 SCT020CB 
     BECMG 2501/2503 9999 NSW SCT020
       
EKVD 240720Z AUTO 23007KT //// ///////// 05/04 Q1027
EKRK 240720Z AUTO 28010KT 9999NDV FEW140/// 04/03 Q1026
TAF EKRK 240454Z 2406/2415 28010KT 9999 FEW025
       
EKSP 240720Z 24006KT CAVOK 04/04 Q1027
TAF EKSP 240512Z 2406/2506 24008KT 9999 FEW030 BKN180 
     TEMPO 2412/2419 26015G25KT -SHRA SCT025CB 
     TEMPO 2419/2506 3000 SHRASN BKN012 SCT020CB
       
EKSB 240720Z AUTO 21004KT 150V250 9999NDV FEW120/// 05/03 Q1027